Flugplatz VERVIERS / Theux / Le Laboru (EBTX)

Hier findest Du alle Informationen zum Flugplatz VERVIERS / Theux / Le Laboru (EBTX).

Informationen für Piloten zum Flugplatz VERVIERS / Theux / Le Laboru

Hier findest Du alle relevanten Informationen, die Du als Pilot benötigst, um VERVIERS / Theux / Le Laboru anzufliegen.

Flugplatz: VERVIERS / Theux / Le Laboru ICAO-Code: EBTX
Frequenz Turm: 119.000 Mhz GAFOR Gebiet: -
Frequenz Ground: 119.000 Mhz Mogas: nein
Platzrunde: N 0 ft Landegebühr: -
Platzhöhe: Sunrise: 03:27 Uhr UTC
Pisten: 06/24 - 732 m x 18 m, GRAS Sunset: 19:53 Uhr UTC

Mitglieder, die in VERVIERS / Theux / Le Laboru fliegen

Flugwetter am Flugplatz VERVIERS / Theux / Le Laboru

Die METAR Information stammen aus EDLN (88.22 km entfernt).

METAR Code:
2022/07/01 09:20
EDLN 010920Z 24004KT 200V330 9999 SCT024 BKN028 17/11 Q1018

Flugschulen am Flugplatz VERVIERS / Theux / Le Laboru

Am Flugplatz VERVIERS / Theux / Le Laboru gibt es leider keine Flugschule.

Benachbarte Flugplätze und Flugschulen

Es gibt 3 weitere Flugplätze in einem Umkreis von 50 km um den Flugplatz VERVIERS / Theux / Le Laboru.

Jetzt anmelden

Passwort vergessen

Umfrage Archiv

Sendet Ihr ADS-B und/oder FLARM?

Ja
83.1 %
Nein
16.9 %
Stimmen: 177 | Diskussion
Anzeige: Roland Aircraft
Statistik Alle Mitglieder

Aktuell sind 58 Besucher online.

Anzeige: ULPower Aero Engines Anzeige: Pocket FMS